Appling, Georgia
Current Conditions -  °F | °C
As of 2:15 PM on Monday 20 Oct 2014 (Local Time) from KHQU Reporting Station
Clear Clear  
Wind Chill: 74°   Ceiling: Unl
Heat Index: 74°   Visibility: 10mi
Dew Point: 55°   Wind: 6mph
Humidity: 50%   Direction: 210°SSW
Pressure: 30.08"   Gusts: NA
Location:  33.55°N, 82.32°W
Report Text: KHQU 201815Z AUTO 21005KT 10SM CLR 23/13 A3008 RMK AO1 T02340125
Loading
Personal Weather Stations






























Interactive Weather Map
Tropical Storm Tracking
New forecast layout! Learn more

10-Day Weather Forecast

Advertisements
Track Severe Weather on mobile